Weather Top, Arizona (BMGR) Weather observations

Data are for 10 minute period ending at time listed.
 Day   Time   Solar   Ave.   Ave.  Ave.  Vector  Max.   Total    
  of    of     Rad.   Air    Rel.  Wind   Wind   Wind  Precip.   
Year   Day            Temp.  Hum.  Speed  Dir.   Gust            
2026   (MST)  Kw/m2    F      %     mph   deg.    mph    in.     
-----------------------------------------------------------------
 125    2:35   0.00   57.4    69    7.1   221    14.4    0.00 
 125    2:40   0.00   57.3    70    6.3   218    11.6    0.00 
 125    2:45   0.00   57.3    70    7.5   221    12.1    0.00 
 125    2:50   0.00   57.3    71    7.7   212    13.3    0.00 
 125    2:55   0.00   57.1    71    6.8   220    12.7    0.00 
 125    3:00   0.00   57.0    71    6.5   221    10.5    0.00 
 125    3:05   0.00   56.9    72    7.7   214    12.1    0.00 
 125    3:10   0.00   56.9    72    6.5   223    11.0    0.00 
 125    3:15   0.00   56.8    72    6.8   221    11.0    0.00 
 125    3:20   0.00   56.9    72    7.3   226    10.5    0.00 
 125    3:25   0.00   56.8    72    6.1   228     9.9    0.00 
 125    3:30   0.00   56.7    72    6.3   226    10.5    0.00 
 125    3:35   0.00   56.5    73    4.5   213     8.8    0.00 
 125    3:40   0.00   56.5    73    5.5   218     7.7    0.00 
 125    3:45   0.00   56.6    73    5.0   224     7.7    0.00 
 125    3:50   0.00   56.5    73    4.8   226     8.8    0.00 
 125    3:55   0.00   56.3    73    3.8   208     7.1    0.00 
 125    4:00   0.00   56.4    73    4.7   219     6.5    0.00 
 125    4:05   0.00   56.5    73    5.0   224     7.1    0.00 
 125    4:10   0.00   56.5    73    5.0   229     7.1    0.00 
 125    4:15   0.00   56.6    73    5.2   230     9.9    0.00 
 125    4:20   0.00   56.6    74    5.8   225     8.8    0.00 
 125    4:25   0.00   56.6    74    6.3   223     9.3    0.00 
 125    4:30   0.00   56.7    74    5.6   230     8.2    0.00 
 125    4:35   0.00   56.8    73    4.5   217     7.7    0.00 
 125    4:40   0.00   56.8    74    5.9   229     9.3    0.00 
 125    4:45   0.00   56.7    74    7.0   224    11.0    0.00 
 125    4:50   0.00   56.5    74    6.4   222     9.3    0.00 
 125    4:55   0.00   56.4    74    5.0   217     8.8    0.00 
 125    5:00   0.00   56.4    74    5.0   211     8.8    0.00 
 125    5:05   0.00   56.3    74    6.0   208     8.8    0.00 
 125    5:10   0.00   56.2    73    4.6   196     8.2    0.00 
 125    5:15   0.00   56.0    73    4.4   161     7.1    0.00 
 125    5:20   0.00   55.9    74    3.9   158     8.2    0.00 
 125    5:25   0.00   55.9    74    3.5   178     6.0    0.00 
 125    5:30   0.00   55.9    74    2.8   208     6.0    0.00 
 125    5:35   0.00   55.9    74    3.4   212     5.4    0.00 
 125    5:40   0.00   55.9    74    5.0   216     8.2    0.00 
 125    5:45   0.00   55.8    75    6.4   214    10.5    0.00 
 125    5:50   0.00   55.7    76    4.5   210     7.7    0.00 
 125    5:55   0.01   55.6    76    3.7   224     6.5    0.00 
 125    6:00   0.01   55.5    76    3.9   217     7.1    0.00 
 125    6:05   0.01   55.5    76    4.0   227     6.5    0.00 
 125    6:10   0.04   55.6    76    4.0   233     6.5    0.00 
 125    6:15   0.03   55.7    75    4.2   226     7.1    0.00 
 125    6:20   0.05   55.6    76    4.0   231     6.5    0.00 
 125    6:25   0.07   55.9    75    1.9   163     4.3    0.00 
 125    6:30   0.09   56.2    71    2.3    72     4.9    0.00 
 125    6:35   0.06   55.9    68    1.4    91     3.8    0.00 
 125    6:40   0.08   55.8    68    2.0    87     3.8    0.00 
 125    6:45   0.06   55.9    68    2.6    94     5.4    0.00 
 125    6:50   0.05   55.9    68    2.4    71     4.9    0.00 
 125    6:55   0.08   55.9    66    3.6    97     6.0    0.00 
 125    7:00   0.08   55.7    64    3.4    38     6.5    0.00 
 125    7:05   0.07   55.6    63    3.1    98     7.7    0.00 
 125    7:10   0.07   55.6    61    3.3    92     7.1    0.00 
 125    7:15   0.08   55.5    56    3.8    94     7.1    0.00 
 125    7:20   0.10   55.7    54    3.2    77     8.2    0.00 
 125    7:25   0.11   55.7    53    3.0    74     6.5    0.00 
 125    7:30   0.09   55.5    53    3.7    68     6.5    0.00 
 125    7:35   0.09   55.6    53    1.8   345     6.0    0.00 
 125    7:40   0.14   55.8    53    1.6   311     5.4    0.00 
 125    7:45   0.19   55.8    52    3.1   296     6.0    0.00 
 125    7:50   0.18   56.3    52    2.4    44     4.9    0.00 
 125    7:55   0.19   56.3    52    3.0   318     7.1    0.00 
 125    8:00   0.18   56.5    52    2.7    46     5.4    0.00 
 125    8:05   0.15   56.5    52    2.0    19     6.5    0.00 
 125    8:10   0.19   56.6    52    2.1   334     5.4    0.00 
 125    8:15   0.22   56.8    52    1.9   309     5.4    0.00 
 125    8:20   0.27   57.2    52    2.2   303     4.9    0.00 
 125    8:25   0.22   57.0    53    2.0   287     6.0    0.00 
 125    8:30   0.24   57.7    52    1.3   252     3.8    0.00 
 125    8:35   0.20   58.1    51    1.7    48     4.9    0.00 
 125    8:40   0.33   58.3    50    2.9   169     6.5    0.00 
 125    8:45   0.57   59.5    48    2.8    92     5.4    0.00 
 125    8:50   0.61   60.8    45    2.7   269     8.2    0.00 
 125    8:55   0.64   60.2    46    2.6   200     6.5    0.00 
 125    9:00   0.67   60.7    44    3.5    75     7.1    0.00 
 125    9:05   0.71   60.5    44    4.2    73    11.6    0.00 
 125    9:10   0.67   60.9    43    4.4    98     8.2    0.00 
 125    9:15   0.67   61.1    42    4.3    26     8.8    0.00 
 125    9:20   0.69   60.2    44    5.0   296    10.5    0.00 
 125    9:25   0.70   60.3    44    4.7    41     8.8    0.00 
 125    9:30   0.71   60.8    42    5.5   311    10.5    0.00 
 125    9:35   0.73   60.3    43    4.9   317    11.0    0.00 
 125    9:40   0.74   60.9    42    5.8   326    14.4    0.00 
 125    9:45   0.76   60.4    43    5.8   316    11.0    0.00 
 125    9:50   0.77   60.6    42    5.2   297    11.0    0.00 
 125    9:55   0.78   61.6    40    5.4    62     9.3    0.00 
 125   10:00   0.80   62.1    39    5.9   313    11.0    0.00 
 125   10:05   0.81   62.4    39    5.1   108     8.2    0.00 
 125   10:10   0.85   63.2    38    4.7    12    11.0    0.00 
 125   10:15   0.98   63.1    38    5.4   322    15.5    0.00 
 125   10:20   1.14   65.2    36    5.3   221    13.3    0.00 
 125   10:25   1.14   63.5    37    6.2   308    11.6    0.00 
 125   10:30   0.65   63.6    37    3.8   334     9.3    0.00 
 125   10:35   0.52   62.7    38    4.6   340     8.8    0.00 
 125   10:40   0.88   63.8    37    4.9    70     8.2    0.00 
 125   10:45   0.97   65.3    35    4.2   342     9.3    0.00 
 125   10:50   0.98   64.5    36    4.7    58    11.6    0.00 
 125   10:55   1.00   66.1    35    4.8    66     9.3    0.00 
 125   11:00   0.99   66.6    34    5.8    80    10.5    0.00 
 125   11:05   0.96   64.9    36    5.5   304    12.1    0.00 
 125   11:10   1.05   64.5    36    4.9   303    11.0    0.00 
 125   11:15   1.08   64.2    37    5.0   308     8.8    0.00 
 125   11:20   0.73   65.3    36    5.1    74    12.7    0.00 
 125   11:25   0.35   65.3    35    5.9   259    12.7    0.00 
 125   11:30   1.05   64.1    37    3.3   277     6.5    0.00 
 125   11:35   1.05   65.5    35    2.2   250     6.0    0.00 
 125   11:40   0.45   66.0    35    3.4    61     7.7    0.00 
 125   11:45   0.36   67.0    34    4.0   100     9.3    0.00 
 125   11:50   0.52   66.7    34    4.8   115     7.7    0.00 
 125   11:55   0.95   66.2    35    6.3   242    11.0    0.00 
 125   12:00   0.92   68.1    33    3.9   171     8.2    0.00 
 125   12:05   0.89   67.8    33    3.6    98     6.5    0.00 
 125   12:10   1.01   67.3    34    5.3    65     9.3    0.00 
 125   12:15   0.68   67.2    34    5.7   340    11.6    0.00 
 125   12:20   0.78   65.9    36    5.4    81     9.9    0.00 
 125   12:25   0.95   66.5    35    5.9   307    12.7    0.00 
 125   12:30   1.21   66.7    35    8.3   315    16.0    0.00 
 125   12:35   0.58   67.6    34    6.1    77    11.0    0.00 
 125   12:40   1.05   69.0    32    4.0    75    11.6    0.00 
 125   12:45   0.99   68.2    33    6.4   318    16.0    0.00 
 125   12:50   0.84   67.4    34    5.8   299    12.1    0.00 
 125   12:55   0.72   67.5    34    6.8    24    12.7    0.00 
 125   13:00   0.52   67.7    34    6.7    53    12.7    0.00 
 125   13:05   0.34   66.1    35    6.4   299    14.4    0.00 
 125   13:10   0.34   65.9    35    3.1    48     9.9    0.00 
 125   13:15   0.47   67.5    33    6.2   130     9.9    0.00 
 125   13:20   0.52   67.4    33    5.9   330    11.6    0.00 
 125   13:25   0.30   67.1    33    4.5   238    10.5    0.00 
 125   13:30   1.03   68.4    32    6.1   124    12.1    0.00 
 125   13:35   0.40   69.1    30    4.8   120     9.3    0.00 
 125   13:40   0.55   67.9    32    4.3   232     8.8    0.00 
 125   13:45   0.78   69.5    30    6.2    84    13.8    0.00 
 125   13:50   0.70   70.0    30    5.2    91    10.5    0.00 
 125   13:55   1.07   69.7    30    6.9    33    14.9    0.00 
 125   14:00   0.76   70.1    30    5.5    80    11.0    0.00 
 125   14:05   0.46   69.9    30    5.3    55    12.7    0.00 
 125   14:10   0.24   68.1    31    5.6   349    17.2    0.00 
 125   14:15   0.85   68.0    31    6.2   347    13.3    0.00 
 125   14:20   1.04   70.8    29    5.7    89    11.6    0.00 
 125   14:25   0.46   69.9    29    5.2   265     9.9    0.00 
 125   14:30   0.85   68.8    30    6.4   318    13.3    0.00 
 125   14:35   0.95   69.3    29    6.0   318    11.0    0.00 
 125   14:40   0.94   72.1    27    7.8    88    12.7    0.00 
 125   14:45   0.63   71.7    27    7.3    81    15.5    0.00 
 125   14:50   0.68   70.0    28    3.5    89     7.1    0.00 
 125   14:55   0.94   70.9    28    5.3    43    11.6    0.00 
 125   15:00   0.48   71.1    27    5.8    71    12.1    0.00 
 125   15:05   0.35   69.2    28    6.4   260    14.4    0.00 
 125   15:10   0.70   69.3    28    7.3   355    13.8    0.00 
 125   15:15   0.88   70.6    27    7.0   102    13.3    0.00 
 125   15:20   0.84   72.3    26    7.6    90    13.3    0.00 
 125   15:25   0.62   70.7    26    6.9    93    14.9    0.00 
 125   15:30   0.46   69.8    27    7.3    50    13.3    0.00 
 125   15:35   0.50   69.3    28    3.9   344     7.7    0.00 
 125   15:40   0.71   70.5    27    3.3   164     8.8    0.00 
 125   15:45   0.44   72.3    25    5.4    92     9.3    0.00 
 125   15:50   0.31   70.0    26    6.6    55    11.0    0.00 
 125   15:55   0.32   70.0    26    4.8   104     8.8    0.00 
 125   16:00   0.30   70.4    26    6.5   102    12.1    0.00 
 125   16:05   0.18   68.6    28    6.1    56    12.1    0.00 
 125   16:10   0.67   69.8    27    5.8   152    12.7    0.00 
 125   16:15   0.43   71.3    26    5.8   105    13.3    0.00 
 125   16:20   0.33   69.5    28    5.2    91    14.9    0.00 
 125   16:25   0.35   69.4    28    4.5   323    10.5    0.00 
 125   16:30   0.58   69.3    28    4.1    52     8.8    0.00 
 125   16:35   0.64   71.2    26    7.4   104    13.8    0.00 
 125   16:40   0.58   71.5    26    7.0   105    13.3    0.00 
 125   16:45   0.40   70.9    26    6.7   111    15.5    0.00 
 125   16:50   0.26   70.4    26    6.6    97    13.8    0.00 
 125   16:55   0.39   70.5    27    5.1    22    13.3    0.00 
 125   17:00   0.08   69.0    28    6.7    75    13.3    0.00 
 125   17:05   0.08   67.6    29    5.9   105    12.7    0.00 
 125   17:10   0.09   67.4    29    4.9    70     9.9    0.00 
 125   17:15   0.20   67.5    29    4.7    45     8.8    0.00 
 125   17:20   0.19   68.0    29    5.2    46     9.9    0.00 
 125   17:25   0.37   69.0    28    4.6   115     9.9    0.00 
 125   17:30   0.32   69.1    28    6.1   319    12.1    0.00 
 125   17:35   0.33   69.8    27    5.7   101    12.7    0.00 
 125   17:40   0.32   69.6    27    4.7    68     9.3    0.00 
 125   17:45   0.31   69.7    28    5.5    57    11.0    0.00 
 125   17:50   0.28   69.7    28    5.8    79    11.0    0.00 
 125   17:55   0.23   69.1    28    6.5   347    16.0    0.00 
 125   18:00   0.22   68.7    28    7.2    32    18.9    0.00 
 125   18:05   0.19   68.5    28    5.3    88     9.9    0.00 
 125   18:10   0.17   68.3    29    6.8    85    14.9    0.00 
 125   18:15   0.16   68.2    29    6.2    43    11.0    0.00 
 125   18:20   0.14   67.8    29    5.6    42     9.9    0.00 
 125   18:25   0.13   68.3    29    4.8    62     9.3    0.00 
 125   18:30   0.11   67.8    29    5.3    86    10.5    0.00 
 125   18:35   0.10   67.7    30    5.5     9    10.5    0.00 
 125   18:40   0.09   67.5    30    4.0    46     8.2    0.00 
 125   18:45   0.07   67.3    30    3.6   101     6.0    0.00 
 125   18:50   0.06   66.8    30    4.9   111    11.6    0.00 
 125   18:55   0.05   66.4    29    4.8    87     9.3    0.00 
 125   19:00   0.04   66.5    29    6.0   304    13.8    0.00 
 125   19:05   0.03   66.1    30    5.9    80     9.9    0.00 
 125   19:10   0.02   65.9    30    5.7    60    10.5    0.00 
 125   19:15   0.01   65.5    30    5.1    87    12.7    0.00 
 125   19:20   0.00   65.0    30    4.6    89     8.2    0.00 
 125   19:25   0.00   64.6    30    5.5    98    10.5    0.00 
 125   19:30   0.00   64.6    30    5.3    95    11.0    0.00 
 125   19:35   0.00   64.3    31    5.0    79     9.3    0.00 
 125   19:40   0.00   64.3    30    5.3    56    12.1    0.00 
 125   19:45   0.00   64.2    31    5.3    15    11.6    0.00 
 125   19:50   0.00   64.1    31    5.5    84    10.5    0.00 
 125   19:55   0.00   64.0    31    5.5    68    10.5    0.00 
 125   20:00   0.00   63.8    31    4.8    90     8.2    0.00 
 125   20:05   0.00   63.9    31    6.6   298    12.7    0.00 
 125   20:10   0.00   63.7    31    4.6    78     8.8    0.00 
 125   20:15   0.00   63.6    31    4.5    57     9.3    0.00 
 125   20:20   0.00   63.6    31    5.3   335    10.5    0.00 
 125   20:25   0.00   63.5    32    6.5   295    12.7    0.00 
 125   20:30   0.00   63.5    32    4.8   346    12.7    0.00 
 125   20:35   0.00   63.4    32    5.0    30    11.0    0.00 
 125   20:40   0.00   63.3    32    4.7     8    10.5    0.00 
 125   20:45   0.00   63.2    32    5.5   348    12.1    0.00 
 125   20:50   0.00   63.0    32    4.3     2     9.9    0.00 
 125   20:55   0.00   63.0    32    4.6   337     8.2    0.00 
 125   21:00   0.00   63.0    32    5.5   323    11.0    0.00 
 125   21:05   0.00   63.0    32    4.0   346     9.3    0.00 
 125   21:10   0.00   62.9    32    3.5   342    11.0    0.00 
 125   21:15   0.00   62.5    33    3.2    70     6.0    0.00 
 125   21:20   0.00   62.3    33    4.7   336    11.0    0.00 
 125   21:25   0.00   62.3    33    3.0    81     6.0    0.00 
 125   21:30   0.00   61.8    34    3.0    80     6.5    0.00 
 125   21:35   0.00   61.6    34    3.7    51     9.3    0.00 
 125   21:40   0.00   61.7    34    3.2    49     6.0    0.00 
 125   21:45   0.00   61.4    34    2.4    66     6.5    0.00 
 125   21:50   0.00   61.4    34    4.8   325    11.0    0.00 
 125   21:55   0.00   61.7    34    4.1   329     9.9    0.00 
 125   22:00   0.00   61.5    35    3.2   350     8.2    0.00 
 125   22:05   0.00   61.4    35    3.5   323     8.2    0.00 
 125   22:10   0.00   61.4    35    2.9   312     6.5    0.00 
 125   22:15   0.00   61.1    35    2.4   143     4.9    0.00 
 125   22:20   0.00   60.6    36    1.4   114     3.2    0.00 
 125   22:25   0.00   60.1    36    1.9   102     4.3    0.00 
 125   22:30   0.00   59.9    36    2.6   101     5.4    0.00 
 125   22:35   0.00   60.0    36    3.0    89     5.4    0.00 
 125   22:40   0.00   60.2    36    3.8   312     8.2    0.00 
 125   22:45   0.00   60.2    36    2.7    14     7.1    0.00 
 125   22:50   0.00   60.0    36    3.1    73     6.5    0.00 
 125   22:55   0.00   60.0    37    2.7    56     4.9    0.00 
 125   23:00   0.00   60.1    36    3.8   318     8.2    0.00 
 125   23:05   0.00   60.2    36    5.5   307    11.0    0.00 
 125   23:10   0.00   60.2    36    5.5   293     9.3    0.00 
 125   23:15   0.00   60.3    36    6.7   296    10.5    0.00 
 125   23:20   0.00   60.4    36    4.3   312     9.3    0.00 
 125   23:25   0.00   60.2    36    2.6   322     6.0    0.00 
 125   23:30   0.00   59.9    37    2.1    74     4.9    0.00 
 125   23:35   0.00   59.5    37    1.5   102     3.8    0.00 
 125   23:40   0.00   59.2    37    1.2    70     4.3    0.00 
 125   23:45   0.00   59.2    37    2.1    73     4.9    0.00 
 125   23:50   0.00   59.0    38    3.1    91     5.4    0.00 
 125   23:55   0.00   58.9    38    3.3    78     5.4    0.00 
 126    0:00   0.00   58.8    38    2.9    86     6.5    0.00 
 126    0:05   0.00   58.7    39    2.4    90     4.9    0.00 
 126    0:10   0.00   58.3    40    2.1    88     4.3    0.00 
 126    0:15   0.00   58.2    41    1.5   189     4.3    0.00 
 126    0:20   0.00   58.0    41    0.9    71     3.8    0.00 
 126    0:25   0.00   58.0    43    1.6    92     5.4    0.00 
 126    0:30   0.00   58.0    44    1.7   218     6.0    0.00 
 126    0:35   0.00   58.0    45    1.8   190     4.9    0.00 
 126    0:40   0.00   58.1    46    2.0   144     4.3    0.00 
 126    0:45   0.00   57.9    46    1.8   116     4.9    0.00 
 126    0:50   0.00   57.9    47    2.3   111     6.0    0.00 
 126    0:55   0.00   57.8    48    2.5    87     5.4    0.00 
 126    1:00   0.00   57.8    48    2.4   109     5.4    0.00 
 126    1:05   0.00   57.7    48    3.1    98     7.1    0.00 
 126    1:10   0.00   57.5    48    4.1    87     7.1    0.00 
 126    1:15   0.00   57.2    48    2.9    83     4.9    0.00 
 126    1:20   0.00   57.0    50    2.9    84     5.4    0.00 
 126    1:25   0.00   56.9    50    2.9    75     5.4    0.00 
 126    1:30   0.00   56.9    51    2.8    89     7.1    0.00 
 126    1:35   0.00   56.9    51    3.0    81     4.9    0.00 
 126    1:40   0.00   56.8    51    3.1    90     5.4    0.00 
 126    1:45   0.00   56.8    51    2.5    80     5.4    0.00 
 126    1:50   0.00   56.8    51    2.5    69     4.9    0.00 
 126    1:55   0.00   56.9    51    2.3    79     6.0    0.00 
 126    2:00   0.00   56.6    51    2.7    89     4.9    0.00 
 126    2:05   0.00   56.5    52    2.4    84     5.4    0.00 
 126    2:10   0.00   56.3    52    2.6    69     4.9    0.00 
 126    2:15   0.00   56.3    52    2.7    85     5.4    0.00 
 126    2:20   0.00   56.1    53    3.0    87     4.9    0.00 
 126    2:25   0.00   56.0    53    2.8    82     5.4    0.00 
 126    2:30   0.00   56.0    53    1.7    57     4.3    0.00 

Return to Weather Top graphs page.


Western Regional Climate Center,wrcc@dri.edu